sensor_id;sensor_type;location;lat;lon;timestamp;P1;durP1;ratioP1;P2;durP2;ratioP2
34497;SDS011;20744;50.938;7.286;2023-08-17T00:01:49;18.50;;;9.38;;
34497;SDS011;20744;50.938;7.286;2023-08-17T00:04:18;16.85;;;9.15;;
34497;SDS011;20744;50.938;7.286;2023-08-17T00:06:45;9.73;;;7.53;;
34497;SDS011;20744;50.938;7.286;2023-08-17T00:09:13;15.70;;;9.18;;
34497;SDS011;20744;50.938;7.286;2023-08-17T00:11:40;14.40;;;8.98;;
34497;SDS011;20744;50.938;7.286;2023-08-17T00:14:08;21.40;;;9.15;;
34497;SDS011;20744;50.938;7.286;2023-08-17T00:16:35;17.10;;;9.18;;
34497;SDS011;20744;50.938;7.286;2023-08-17T00:19:03;18.73;;;9.80;;
34497;SDS011;20744;50.938;7.286;2023-08-17T00:21:31;17.50;;;8.73;;
34497;SDS011;20744;50.938;7.286;2023-08-17T00:23:58;11.55;;;7.32;;
34497;SDS011;20744;50.938;7.286;2023-08-17T00:26:26;14.60;;;8.25;;
34497;SDS011;20744;50.938;7.286;2023-08-17T00:28:53;11.48;;;7.93;;
34497;SDS011;20744;50.938;7.286;2023-08-17T00:31:20;11.55;;;8.73;;
34497;SDS011;20744;50.938;7.286;2023-08-17T00:33:48;14.02;;;7.82;;
34497;SDS011;20744;50.938;7.286;2023-08-17T00:36:15;17.50;;;9.30;;
34497;SDS011;20744;50.938;7.286;2023-08-17T00:38:44;16.88;;;8.70;;
34497;SDS011;20744;50.938;7.286;2023-08-17T00:41:11;14.57;;;8.65;;
34497;SDS011;20744;50.938;7.286;2023-08-17T00:43:38;19.33;;;10.38;;
34497;SDS011;20744;50.938;7.286;2023-08-17T00:46:05;16.02;;;9.48;;
34497;SDS011;20744;50.938;7.286;2023-08-17T00:48:33;17.15;;;10.23;;
34497;SDS011;20744;50.938;7.286;2023-08-17T00:51:01;13.32;;;9.68;;
34497;SDS011;20744;50.938;7.286;2023-08-17T00:53:29;15.88;;;10.05;;
34497;SDS011;20744;50.938;7.286;2023-08-17T00:55:59;17.52;;;9.75;;
34497;SDS011;20744;50.938;7.286;2023-08-17T00:58:26;14.35;;;10.35;;
34497;SDS011;20744;50.938;7.286;2023-08-17T01:00:54;23.05;;;11.32;;
34497;SDS011;20744;50.938;7.286;2023-08-17T01:03:22;16.02;;;10.68;;
34497;SDS011;20744;50.938;7.286;2023-08-17T01:05:50;17.33;;;10.73;;
34497;SDS011;20744;50.938;7.286;2023-08-17T01:08:17;16.60;;;11.40;;
34497;SDS011;20744;50.938;7.286;2023-08-17T01:10:47;17.73;;;11.23;;
34497;SDS011;20744;50.938;7.286;2023-08-17T01:13:21;15.40;;;10.38;;
34497;SDS011;20744;50.938;7.286;2023-08-17T01:15:51;25.52;;;11.02;;
34497;SDS011;20744;50.938;7.286;2023-08-17T01:18:20;18.00;;;10.38;;
34497;SDS011;20744;50.938;7.286;2023-08-17T01:20:48;16.25;;;9.85;;
34497;SDS011;20744;50.938;7.286;2023-08-17T01:23:17;16.55;;;9.65;;
34497;SDS011;20744;50.938;7.286;2023-08-17T01:25:45;16.05;;;9.77;;
34497;SDS011;20744;50.938;7.286;2023-08-17T01:28:12;14.88;;;9.93;;
34497;SDS011;20744;50.938;7.286;2023-08-17T01:30:43;21.35;;;10.07;;
34497;SDS011;20744;50.938;7.286;2023-08-17T01:33:11;18.80;;;10.27;;
34497;SDS011;20744;50.938;7.286;2023-08-17T01:35:44;20.05;;;9.95;;
34497;SDS011;20744;50.938;7.286;2023-08-17T01:38:14;15.10;;;9.95;;
34497;SDS011;20744;50.938;7.286;2023-08-17T01:40:45;17.60;;;9.20;;
34497;SDS011;20744;50.938;7.286;2023-08-17T01:43:16;16.63;;;9.82;;
34497;SDS011;20744;50.938;7.286;2023-08-17T01:45:43;16.58;;;10.75;;
34497;SDS011;20744;50.938;7.286;2023-08-17T01:48:11;16.10;;;9.30;;
34497;SDS011;20744;50.938;7.286;2023-08-17T01:50:38;12.35;;;9.15;;
34497;SDS011;20744;50.938;7.286;2023-08-17T01:53:05;15.18;;;9.57;;
34497;SDS011;20744;50.938;7.286;2023-08-17T01:55:35;15.93;;;9.65;;
34497;SDS011;20744;50.938;7.286;2023-08-17T01:58:04;14.65;;;9.30;;
34497;SDS011;20744;50.938;7.286;2023-08-17T02:00:31;11.93;;;9.27;;
34497;SDS011;20744;50.938;7.286;2023-08-17T02:02:58;18.38;;;8.75;;
34497;SDS011;20744;50.938;7.286;2023-08-17T02:05:25;15.18;;;8.35;;
34497;SDS011;20744;50.938;7.286;2023-08-17T02:07:54;11.68;;;7.93;;
34497;SDS011;20744;50.938;7.286;2023-08-17T02:10:21;9.35;;;7.50;;
34497;SDS011;20744;50.938;7.286;2023-08-17T02:12:49;13.90;;;8.55;;
34497;SDS011;20744;50.938;7.286;2023-08-17T02:15:18;12.35;;;7.85;;
34497;SDS011;20744;50.938;7.286;2023-08-17T02:17:45;12.57;;;7.90;;
34497;SDS011;20744;50.938;7.286;2023-08-17T02:20:13;16.05;;;7.68;;
34497;SDS011;20744;50.938;7.286;2023-08-17T02:22:40;13.40;;;7.15;;
34497;SDS011;20744;50.938;7.286;2023-08-17T02:25:08;10.98;;;7.60;;
34497;SDS011;20744;50.938;7.286;2023-08-17T02:27:35;11.80;;;7.20;;
34497;SDS011;20744;50.938;7.286;2023-08-17T02:30:02;13.70;;;7.53;;
34497;SDS011;20744;50.938;7.286;2023-08-17T02:32:31;11.82;;;7.63;;
34497;SDS011;20744;50.938;7.286;2023-08-17T02:34:58;15.88;;;7.80;;
34497;SDS011;20744;50.938;7.286;2023-08-17T02:37:26;13.65;;;7.60;;
34497;SDS011;20744;50.938;7.286;2023-08-17T02:39:53;14.93;;;6.93;;
34497;SDS011;20744;50.938;7.286;2023-08-17T02:42:20;12.90;;;7.13;;
34497;SDS011;20744;50.938;7.286;2023-08-17T02:44:48;10.10;;;7.53;;
34497;SDS011;20744;50.938;7.286;2023-08-17T02:47:15;13.73;;;6.88;;
34497;SDS011;20744;50.938;7.286;2023-08-17T02:49:44;10.90;;;6.78;;
34497;SDS011;20744;50.938;7.286;2023-08-17T02:52:14;13.27;;;7.60;;
34497;SDS011;20744;50.938;7.286;2023-08-17T02:54:41;13.18;;;6.43;;
34497;SDS011;20744;50.938;7.286;2023-08-17T02:57:08;12.98;;;6.57;;
34497;SDS011;20744;50.938;7.286;2023-08-17T02:59:36;14.88;;;7.15;;
34497;SDS011;20744;50.938;7.286;2023-08-17T03:02:03;10.00;;;6.70;;
34497;SDS011;20744;50.938;7.286;2023-08-17T03:04:30;13.50;;;7.65;;
34497;SDS011;20744;50.938;7.286;2023-08-17T03:06:59;11.05;;;6.47;;
34497;SDS011;20744;50.938;7.286;2023-08-17T03:09:26;14.88;;;7.15;;
34497;SDS011;20744;50.938;7.286;2023-08-17T03:11:53;12.13;;;6.03;;
34497;SDS011;20744;50.938;7.286;2023-08-17T03:14:21;9.52;;;6.35;;
34497;SDS011;20744;50.938;7.286;2023-08-17T03:16:48;12.45;;;6.07;;
34497;SDS011;20744;50.938;7.286;2023-08-17T03:19:15;9.40;;;6.15;;
34497;SDS011;20744;50.938;7.286;2023-08-17T03:21:43;11.38;;;6.30;;
34497;SDS011;20744;50.938;7.286;2023-08-17T03:24:11;11.77;;;6.80;;
34497;SDS011;20744;50.938;7.286;2023-08-17T03:26:39;10.98;;;7.00;;
34497;SDS011;20744;50.938;7.286;2023-08-17T03:29:06;9.35;;;6.60;;
34497;SDS011;20744;50.938;7.286;2023-08-17T03:31:34;14.32;;;7.80;;
34497;SDS011;20744;50.938;7.286;2023-08-17T03:34:02;14.43;;;7.45;;
34497;SDS011;20744;50.938;7.286;2023-08-17T03:36:29;12.98;;;7.97;;
34497;SDS011;20744;50.938;7.286;2023-08-17T03:38:56;11.25;;;8.50;;
34497;SDS011;20744;50.938;7.286;2023-08-17T03:41:25;18.45;;;8.65;;
34497;SDS011;20744;50.938;7.286;2023-08-17T03:43:52;13.63;;;8.93;;
34497;SDS011;20744;50.938;7.286;2023-08-17T03:46:20;14.63;;;8.95;;
34497;SDS011;20744;50.938;7.286;2023-08-17T03:48:47;20.33;;;9.95;;
34497;SDS011;20744;50.938;7.286;2023-08-17T03:51:14;20.08;;;10.00;;
34497;SDS011;20744;50.938;7.286;2023-08-17T03:53:41;21.35;;;9.90;;
34497;SDS011;20744;50.938;7.286;2023-08-17T03:56:09;14.75;;;10.30;;
34497;SDS011;20744;50.938;7.286;2023-08-17T03:58:37;21.27;;;10.93;;
34497;SDS011;20744;50.938;7.286;2023-08-17T04:01:05;21.83;;;11.45;;
34497;SDS011;20744;50.938;7.286;2023-08-17T04:03:32;14.77;;;11.02;;
34497;SDS011;20744;50.938;7.286;2023-08-17T04:06:03;18.58;;;11.00;;
34497;SDS011;20744;50.938;7.286;2023-08-17T04:08:31;19.23;;;11.38;;
34497;SDS011;20744;50.938;7.286;2023-08-17T04:10:58;17.20;;;11.05;;
34497;SDS011;20744;50.938;7.286;2023-08-17T04:13:26;23.05;;;11.63;;
34497;SDS011;20744;50.938;7.286;2023-08-17T04:15:54;17.33;;;11.23;;
34497;SDS011;20744;50.938;7.286;2023-08-17T04:18:22;22.73;;;11.45;;
34497;SDS011;20744;50.938;7.286;2023-08-17T04:20:49;19.40;;;10.65;;
34497;SDS011;20744;50.938;7.286;2023-08-17T04:23:16;17.30;;;11.13;;
34497;SDS011;20744;50.938;7.286;2023-08-17T04:25:46;24.17;;;11.07;;
34497;SDS011;20744;50.938;7.286;2023-08-17T04:28:13;21.35;;;11.65;;
34497;SDS011;20744;50.938;7.286;2023-08-17T04:30:41;20.73;;;11.10;;
34497;SDS011;20744;50.938;7.286;2023-08-17T04:33:10;22.95;;;11.38;;
34497;SDS011;20744;50.938;7.286;2023-08-17T04:35:38;17.67;;;11.05;;
34497;SDS011;20744;50.938;7.286;2023-08-17T04:38:05;19.80;;;11.05;;
34497;SDS011;20744;50.938;7.286;2023-08-17T04:40:32;17.23;;;11.05;;
34497;SDS011;20744;50.938;7.286;2023-08-17T04:43:00;17.85;;;11.13;;
34497;SDS011;20744;50.938;7.286;2023-08-17T04:45:27;20.17;;;11.45;;
34497;SDS011;20744;50.938;7.286;2023-08-17T04:47:54;20.13;;;10.63;;
34497;SDS011;20744;50.938;7.286;2023-08-17T04:50:23;19.83;;;12.50;;
34497;SDS011;20744;50.938;7.286;2023-08-17T04:52:50;20.10;;;11.80;;
34497;SDS011;20744;50.938;7.286;2023-08-17T04:55:18;21.30;;;12.70;;
34497;SDS011;20744;50.938;7.286;2023-08-17T04:57:45;20.95;;;12.13;;
34497;SDS011;20744;50.938;7.286;2023-08-17T05:00:13;20.85;;;12.35;;
34497;SDS011;20744;50.938;7.286;2023-08-17T05:02:40;19.75;;;12.88;;
34497;SDS011;20744;50.938;7.286;2023-08-17T05:05:09;22.08;;;12.75;;
34497;SDS011;20744;50.938;7.286;2023-08-17T05:07:38;23.33;;;13.13;;
34497;SDS011;20744;50.938;7.286;2023-08-17T05:10:05;15.73;;;12.60;;
34497;SDS011;20744;50.938;7.286;2023-08-17T05:12:35;21.42;;;12.15;;
34497;SDS011;20744;50.938;7.286;2023-08-17T05:15:02;18.13;;;11.85;;
34497;SDS011;20744;50.938;7.286;2023-08-17T05:17:30;23.33;;;12.20;;
34497;SDS011;20744;50.938;7.286;2023-08-17T05:19:57;17.77;;;11.88;;
34497;SDS011;20744;50.938;7.286;2023-08-17T05:22:24;23.95;;;12.18;;
34497;SDS011;20744;50.938;7.286;2023-08-17T05:24:53;18.13;;;12.32;;
34497;SDS011;20744;50.938;7.286;2023-08-17T05:27:20;23.08;;;12.13;;
34497;SDS011;20744;50.938;7.286;2023-08-17T05:29:48;19.42;;;13.65;;
34497;SDS011;20744;50.938;7.286;2023-08-17T05:32:15;21.98;;;13.45;;
34497;SDS011;20744;50.938;7.286;2023-08-17T05:34:43;20.08;;;14.02;;
34497;SDS011;20744;50.938;7.286;2023-08-17T05:37:10;22.83;;;14.07;;
34497;SDS011;20744;50.938;7.286;2023-08-17T05:39:39;23.38;;;13.50;;
34497;SDS011;20744;50.938;7.286;2023-08-17T05:42:07;22.20;;;15.18;;
34497;SDS011;20744;50.938;7.286;2023-08-17T05:44:35;21.77;;;14.65;;
34497;SDS011;20744;50.938;7.286;2023-08-17T05:47:03;21.73;;;14.48;;
34497;SDS011;20744;50.938;7.286;2023-08-17T05:49:30;20.05;;;14.40;;
34497;SDS011;20744;50.938;7.286;2023-08-17T05:51:57;27.60;;;15.80;;
34497;SDS011;20744;50.938;7.286;2023-08-17T05:54:25;27.50;;;15.07;;
34497;SDS011;20744;50.938;7.286;2023-08-17T05:56:52;27.23;;;15.23;;
34497;SDS011;20744;50.938;7.286;2023-08-17T05:59:21;19.80;;;13.70;;
34497;SDS011;20744;50.938;7.286;2023-08-17T06:01:48;20.83;;;15.50;;
34497;SDS011;20744;50.938;7.286;2023-08-17T06:04:15;22.92;;;14.63;;
34497;SDS011;20744;50.938;7.286;2023-08-17T06:06:43;19.40;;;14.38;;
34497;SDS011;20744;50.938;7.286;2023-08-17T06:09:10;20.70;;;14.95;;
34497;SDS011;20744;50.938;7.286;2023-08-17T06:11:37;21.95;;;15.18;;
34497;SDS011;20744;50.938;7.286;2023-08-17T06:14:05;25.35;;;14.95;;
34497;SDS011;20744;50.938;7.286;2023-08-17T06:16:34;21.27;;;14.80;;
34497;SDS011;20744;50.938;7.286;2023-08-17T06:19:01;19.63;;;14.00;;
34497;SDS011;20744;50.938;7.286;2023-08-17T06:21:29;20.95;;;15.75;;
34497;SDS011;20744;50.938;7.286;2023-08-17T06:23:56;24.88;;;13.90;;
34497;SDS011;20744;50.938;7.286;2023-08-17T06:26:23;20.58;;;14.40;;
34497;SDS011;20744;50.938;7.286;2023-08-17T06:28:51;24.70;;;14.82;;
34497;SDS011;20744;50.938;7.286;2023-08-17T06:31:18;20.00;;;14.20;;
34497;SDS011;20744;50.938;7.286;2023-08-17T06:33:47;26.63;;;14.95;;
34497;SDS011;20744;50.938;7.286;2023-08-17T06:36:14;26.23;;;15.18;;
34497;SDS011;20744;50.938;7.286;2023-08-17T06:38:42;20.77;;;14.60;;
34497;SDS011;20744;50.938;7.286;2023-08-17T06:41:09;21.20;;;14.98;;
34497;SDS011;20744;50.938;7.286;2023-08-17T06:43:37;21.23;;;14.50;;
34497;SDS011;20744;50.938;7.286;2023-08-17T06:46:04;22.98;;;15.38;;
34497;SDS011;20744;50.938;7.286;2023-08-17T06:48:31;19.98;;;14.57;;
34497;SDS011;20744;50.938;7.286;2023-08-17T06:51:00;19.98;;;13.35;;
34497;SDS011;20744;50.938;7.286;2023-08-17T06:53:29;31.08;;;14.98;;
34497;SDS011;20744;50.938;7.286;2023-08-17T06:55:57;23.95;;;15.07;;
34497;SDS011;20744;50.938;7.286;2023-08-17T06:58:24;25.42;;;15.57;;
34497;SDS011;20744;50.938;7.286;2023-08-17T07:00:52;22.48;;;14.05;;
34497;SDS011;20744;50.938;7.286;2023-08-17T07:03:19;21.45;;;15.13;;
34497;SDS011;20744;50.938;7.286;2023-08-17T07:05:46;22.10;;;14.55;;
34497;SDS011;20744;50.938;7.286;2023-08-17T07:08:15;22.40;;;13.57;;
34497;SDS011;20744;50.938;7.286;2023-08-17T07:10:43;22.58;;;14.70;;
34497;SDS011;20744;50.938;7.286;2023-08-17T07:13:10;17.60;;;13.70;;
34497;SDS011;20744;50.938;7.286;2023-08-17T07:15:37;21.55;;;14.02;;
34497;SDS011;20744;50.938;7.286;2023-08-17T07:18:05;25.33;;;14.18;;
34497;SDS011;20744;50.938;7.286;2023-08-17T07:20:32;20.70;;;13.48;;
34497;SDS011;20744;50.938;7.286;2023-08-17T07:23:00;23.38;;;13.35;;
34497;SDS011;20744;50.938;7.286;2023-08-17T07:25:29;19.98;;;12.75;;
34497;SDS011;20744;50.938;7.286;2023-08-17T07:27:57;17.67;;;12.85;;
34497;SDS011;20744;50.938;7.286;2023-08-17T07:30:24;18.75;;;13.20;;
34497;SDS011;20744;50.938;7.286;2023-08-17T07:32:52;17.20;;;11.93;;
34497;SDS011;20744;50.938;7.286;2023-08-17T07:35:19;17.65;;;11.70;;
34497;SDS011;20744;50.938;7.286;2023-08-17T07:37:47;14.73;;;10.70;;
34497;SDS011;20744;50.938;7.286;2023-08-17T07:40:15;12.88;;;10.20;;
34497;SDS011;20744;50.938;7.286;2023-08-17T07:42:43;13.30;;;10.02;;
34497;SDS011;20744;50.938;7.286;2023-08-17T07:45:13;13.73;;;8.65;;
34497;SDS011;20744;50.938;7.286;2023-08-17T07:47:41;11.50;;;8.38;;
34497;SDS011;20744;50.938;7.286;2023-08-17T07:50:09;9.75;;;7.53;;
34497;SDS011;20744;50.938;7.286;2023-08-17T07:52:39;8.23;;;6.85;;
34497;SDS011;20744;50.938;7.286;2023-08-17T07:55:09;8.05;;;6.00;;
34497;SDS011;20744;50.938;7.286;2023-08-17T07:57:36;8.15;;;6.85;;
34497;SDS011;20744;50.938;7.286;2023-08-17T08:00:06;8.98;;;5.50;;
34497;SDS011;20744;50.938;7.286;2023-08-17T08:02:34;10.27;;;6.20;;
34497;SDS011;20744;50.938;7.286;2023-08-17T08:05:01;6.78;;;5.80;;
34497;SDS011;20744;50.938;7.286;2023-08-17T08:07:29;11.88;;;5.63;;
34497;SDS011;20744;50.938;7.286;2023-08-17T08:09:59;7.72;;;5.68;;
34497;SDS011;20744;50.938;7.286;2023-08-17T08:12:26;8.35;;;6.03;;
34497;SDS011;20744;50.938;7.286;2023-08-17T08:14:54;7.95;;;5.18;;
34497;SDS011;20744;50.938;7.286;2023-08-17T08:17:23;6.68;;;4.63;;
34497;SDS011;20744;50.938;7.286;2023-08-17T08:19:56;7.45;;;5.20;;
34497;SDS011;20744;50.938;7.286;2023-08-17T08:22:24;11.00;;;5.63;;
34497;SDS011;20744;50.938;7.286;2023-08-17T08:24:52;7.35;;;5.22;;
34497;SDS011;20744;50.938;7.286;2023-08-17T08:27:19;6.88;;;4.60;;
34497;SDS011;20744;50.938;7.286;2023-08-17T08:29:46;6.47;;;4.65;;
34497;SDS011;20744;50.938;7.286;2023-08-17T08:32:14;10.57;;;5.72;;
34497;SDS011;20744;50.938;7.286;2023-08-17T08:34:43;10.68;;;7.32;;
34497;SDS011;20744;50.938;7.286;2023-08-17T08:37:10;10.05;;;7.28;;
34497;SDS011;20744;50.938;7.286;2023-08-17T08:39:47;10.10;;;6.82;;
34497;SDS011;20744;50.938;7.286;2023-08-17T08:42:16;11.93;;;5.80;;
34497;SDS011;20744;50.938;7.286;2023-08-17T08:44:43;8.05;;;5.38;;
34497;SDS011;20744;50.938;7.286;2023-08-17T08:47:11;9.32;;;5.97;;
34497;SDS011;20744;50.938;7.286;2023-08-17T08:49:39;12.75;;;6.45;;
34497;SDS011;20744;50.938;7.286;2023-08-17T08:52:08;9.32;;;6.25;;
34497;SDS011;20744;50.938;7.286;2023-08-17T08:54:39;7.72;;;5.68;;
34497;SDS011;20744;50.938;7.286;2023-08-17T08:57:13;10.90;;;6.40;;
34497;SDS011;20744;50.938;7.286;2023-08-17T08:59:41;11.35;;;7.35;;
34497;SDS011;20744;50.938;7.286;2023-08-17T09:02:10;10.05;;;7.10;;
34497;SDS011;20744;50.938;7.286;2023-08-17T09:04:38;11.75;;;7.32;;
34497;SDS011;20744;50.938;7.286;2023-08-17T09:07:07;9.40;;;7.28;;
34497;SDS011;20744;50.938;7.286;2023-08-17T09:09:34;8.60;;;6.68;;
34497;SDS011;20744;50.938;7.286;2023-08-17T09:12:02;10.93;;;7.40;;
34497;SDS011;20744;50.938;7.286;2023-08-17T09:14:30;10.13;;;7.45;;
34497;SDS011;20744;50.938;7.286;2023-08-17T09:16:57;10.80;;;7.43;;
34497;SDS011;20744;50.938;7.286;2023-08-17T09:19:25;8.85;;;7.00;;
34497;SDS011;20744;50.938;7.286;2023-08-17T09:21:53;10.85;;;7.07;;
34497;SDS011;20744;50.938;7.286;2023-08-17T09:24:22;6.25;;;5.30;;
34497;SDS011;20744;50.938;7.286;2023-08-17T09:26:49;11.25;;;6.57;;
34497;SDS011;20744;50.938;7.286;2023-08-17T09:29:17;10.32;;;6.70;;
34497;SDS011;20744;50.938;7.286;2023-08-17T09:31:45;8.05;;;5.85;;
34497;SDS011;20744;50.938;7.286;2023-08-17T09:34:14;8.00;;;6.32;;
34497;SDS011;20744;50.938;7.286;2023-08-17T09:36:42;9.73;;;6.00;;
34497;SDS011;20744;50.938;7.286;2023-08-17T09:39:15;6.03;;;5.35;;
34497;SDS011;20744;50.938;7.286;2023-08-17T09:41:45;10.50;;;6.13;;
34497;SDS011;20744;50.938;7.286;2023-08-17T09:44:12;7.55;;;5.32;;
34497;SDS011;20744;50.938;7.286;2023-08-17T09:46:42;6.53;;;5.18;;
34497;SDS011;20744;50.938;7.286;2023-08-17T09:49:09;6.03;;;5.25;;
34497;SDS011;20744;50.938;7.286;2023-08-17T09:51:37;7.03;;;5.32;;
34497;SDS011;20744;50.938;7.286;2023-08-17T09:54:08;10.07;;;5.13;;
34497;SDS011;20744;50.938;7.286;2023-08-17T09:56:35;7.43;;;4.85;;
34497;SDS011;20744;50.938;7.286;2023-08-17T09:59:09;8.90;;;5.03;;
34497;SDS011;20744;50.938;7.286;2023-08-17T10:01:36;8.02;;;4.70;;
34497;SDS011;20744;50.938;7.286;2023-08-17T10:04:03;6.20;;;4.13;;
34497;SDS011;20744;50.938;7.286;2023-08-17T10:06:31;7.68;;;4.30;;
34497;SDS011;20744;50.938;7.286;2023-08-17T10:09:00;6.03;;;4.40;;
34497;SDS011;20744;50.938;7.286;2023-08-17T10:11:27;6.80;;;4.53;;
34497;SDS011;20744;50.938;7.286;2023-08-17T10:13:59;5.85;;;4.35;;
34497;SDS011;20744;50.938;7.286;2023-08-17T10:16:33;7.43;;;3.75;;
34497;SDS011;20744;50.938;7.286;2023-08-17T10:19:03;4.88;;;3.70;;
34497;SDS011;20744;50.938;7.286;2023-08-17T10:21:36;6.70;;;4.15;;
34497;SDS011;20744;50.938;7.286;2023-08-17T10:24:05;4.10;;;3.60;;
34497;SDS011;20744;50.938;7.286;2023-08-17T10:26:33;7.30;;;3.65;;
34497;SDS011;20744;50.938;7.286;2023-08-17T10:29:00;5.53;;;3.90;;
34497;SDS011;20744;50.938;7.286;2023-08-17T10:31:33;5.38;;;4.00;;
34497;SDS011;20744;50.938;7.286;2023-08-17T10:34:01;6.18;;;4.22;;
34497;SDS011;20744;50.938;7.286;2023-08-17T10:36:29;6.63;;;3.78;;
34497;SDS011;20744;50.938;7.286;2023-08-17T10:41:59;3.83;;;3.08;;
34497;SDS011;20744;50.938;7.286;2023-08-17T10:44:40;5.05;;;3.63;;
34497;SDS011;20744;50.938;7.286;2023-08-17T10:47:20;4.25;;;3.83;;
34497;SDS011;20744;50.938;7.286;2023-08-17T10:49:49;4.47;;;3.53;;
34497;SDS011;20744;50.938;7.286;2023-08-17T10:52:24;5.70;;;3.45;;
34497;SDS011;20744;50.938;7.286;2023-08-17T10:54:53;6.72;;;3.75;;
34497;SDS011;20744;50.938;7.286;2023-08-17T10:57:25;5.57;;;3.50;;
34497;SDS011;20744;50.938;7.286;2023-08-17T11:00:05;6.30;;;3.65;;
34497;SDS011;20744;50.938;7.286;2023-08-17T11:02:35;6.40;;;3.42;;
34497;SDS011;20744;50.938;7.286;2023-08-17T11:05:03;12.32;;;3.60;;
34497;SDS011;20744;50.938;7.286;2023-08-17T11:07:38;5.43;;;3.40;;
34497;SDS011;20744;50.938;7.286;2023-08-17T11:10:13;4.88;;;3.33;;
34497;SDS011;20744;50.938;7.286;2023-08-17T11:12:54;4.78;;;3.40;;
34497;SDS011;20744;50.938;7.286;2023-08-17T11:15:24;6.10;;;3.33;;
34497;SDS011;20744;50.938;7.286;2023-08-17T11:17:53;4.95;;;3.30;;
34497;SDS011;20744;50.938;7.286;2023-08-17T11:20:22;6.13;;;3.25;;
34497;SDS011;20744;50.938;7.286;2023-08-17T11:22:51;6.13;;;3.25;;
34497;SDS011;20744;50.938;7.286;2023-08-17T11:25:18;5.35;;;2.95;;
34497;SDS011;20744;50.938;7.286;2023-08-17T11:27:46;6.85;;;4.00;;
34497;SDS011;20744;50.938;7.286;2023-08-17T11:30:13;6.38;;;3.95;;
34497;SDS011;20744;50.938;7.286;2023-08-17T11:32:41;7.55;;;3.92;;
34497;SDS011;20744;50.938;7.286;2023-08-17T11:35:10;5.25;;;3.28;;
34497;SDS011;20744;50.938;7.286;2023-08-17T11:37:37;5.25;;;3.58;;
34497;SDS011;20744;50.938;7.286;2023-08-17T11:40:05;4.03;;;3.00;;
34497;SDS011;20744;50.938;7.286;2023-08-17T11:42:33;5.82;;;3.30;;
34497;SDS011;20744;50.938;7.286;2023-08-17T11:45:01;5.22;;;2.83;;
34497;SDS011;20744;50.938;7.286;2023-08-17T11:47:28;8.90;;;3.40;;
34497;SDS011;20744;50.938;7.286;2023-08-17T11:49:58;5.93;;;3.40;;
34497;SDS011;20744;50.938;7.286;2023-08-17T11:52:31;6.53;;;3.00;;
34497;SDS011;20744;50.938;7.286;2023-08-17T11:54:59;4.15;;;3.28;;
34497;SDS011;20744;50.938;7.286;2023-08-17T11:57:26;4.30;;;2.60;;
34497;SDS011;20744;50.938;7.286;2023-08-17T11:59:54;4.40;;;2.65;;
34497;SDS011;20744;50.938;7.286;2023-08-17T12:02:23;6.40;;;2.70;;
34497;SDS011;20744;50.938;7.286;2023-08-17T12:04:50;4.13;;;2.53;;
34497;SDS011;20744;50.938;7.286;2023-08-17T12:07:17;4.88;;;2.70;;
34497;SDS011;20744;50.938;7.286;2023-08-17T12:09:48;3.83;;;2.40;;
34497;SDS011;20744;50.938;7.286;2023-08-17T12:12:17;4.68;;;2.60;;
34497;SDS011;20744;50.938;7.286;2023-08-17T12:14:48;5.80;;;2.40;;
34497;SDS011;20744;50.938;7.286;2023-08-17T12:17:16;6.18;;;2.83;;
34497;SDS011;20744;50.938;7.286;2023-08-17T12:19:43;6.13;;;2.50;;
34497;SDS011;20744;50.938;7.286;2023-08-17T12:22:12;8.65;;;2.72;;
34497;SDS011;20744;50.938;7.286;2023-08-17T12:24:40;4.65;;;2.28;;
34497;SDS011;20744;50.938;7.286;2023-08-17T12:27:11;5.50;;;2.30;;
34497;SDS011;20744;50.938;7.286;2023-08-17T12:29:45;4.82;;;2.47;;
34497;SDS011;20744;50.938;7.286;2023-08-17T12:34:40;3.25;;;2.50;;
34497;SDS011;20744;50.938;7.286;2023-08-17T12:37:08;5.10;;;2.50;;
34497;SDS011;20744;50.938;7.286;2023-08-17T12:39:36;4.47;;;2.30;;
34497;SDS011;20744;50.938;7.286;2023-08-17T12:42:03;6.93;;;2.50;;
34497;SDS011;20744;50.938;7.286;2023-08-17T12:44:32;3.20;;;2.33;;
34497;SDS011;20744;50.938;7.286;2023-08-17T12:46:59;2.80;;;2.30;;
34497;SDS011;20744;50.938;7.286;2023-08-17T12:49:27;2.58;;;2.10;;
34497;SDS011;20744;50.938;7.286;2023-08-17T12:51:54;3.17;;;2.30;;
34497;SDS011;20744;50.938;7.286;2023-08-17T12:54:21;6.57;;;2.20;;
34497;SDS011;20744;50.938;7.286;2023-08-17T12:56:49;5.63;;;2.50;;
34497;SDS011;20744;50.938;7.286;2023-08-17T12:59:16;2.70;;;2.22;;
34497;SDS011;20744;50.938;7.286;2023-08-17T13:01:45;4.50;;;2.40;;
34497;SDS011;20744;50.938;7.286;2023-08-17T13:04:12;3.85;;;2.60;;
34497;SDS011;20744;50.938;7.286;2023-08-17T13:06:42;3.55;;;2.55;;
34497;SDS011;20744;50.938;7.286;2023-08-17T13:09:10;3.45;;;2.40;;
34497;SDS011;20744;50.938;7.286;2023-08-17T13:11:40;3.40;;;2.22;;
34497;SDS011;20744;50.938;7.286;2023-08-17T13:14:09;4.70;;;2.80;;
34497;SDS011;20744;50.938;7.286;2023-08-17T13:16:39;4.50;;;2.65;;
34497;SDS011;20744;50.938;7.286;2023-08-17T13:19:07;5.65;;;2.38;;
34497;SDS011;20744;50.938;7.286;2023-08-17T13:21:35;3.78;;;2.42;;
34497;SDS011;20744;50.938;7.286;2023-08-17T13:24:02;2.70;;;2.13;;
34497;SDS011;20744;50.938;7.286;2023-08-17T13:26:29;5.53;;;2.30;;
34497;SDS011;20744;50.938;7.286;2023-08-17T13:28:57;3.00;;;2.45;;
34497;SDS011;20744;50.938;7.286;2023-08-17T13:31:24;4.47;;;2.42;;
34497;SDS011;20744;50.938;7.286;2023-08-17T13:33:54;4.63;;;2.80;;
34497;SDS011;20744;50.938;7.286;2023-08-17T13:36:23;6.47;;;3.00;;
34497;SDS011;20744;50.938;7.286;2023-08-17T13:38:50;3.78;;;3.15;;
34497;SDS011;20744;50.938;7.286;2023-08-17T13:41:17;4.00;;;3.20;;
34497;SDS011;20744;50.938;7.286;2023-08-17T13:43:44;4.03;;;3.30;;
34497;SDS011;20744;50.938;7.286;2023-08-17T13:46:12;6.28;;;3.47;;
34497;SDS011;20744;50.938;7.286;2023-08-17T13:48:39;4.85;;;3.38;;
34497;SDS011;20744;50.938;7.286;2023-08-17T13:51:07;4.72;;;3.15;;
34497;SDS011;20744;50.938;7.286;2023-08-17T13:53:35;8.80;;;3.90;;
34497;SDS011;20744;50.938;7.286;2023-08-17T13:56:03;4.97;;;4.00;;
34497;SDS011;20744;50.938;7.286;2023-08-17T13:58:30;5.13;;;3.80;;
34497;SDS011;20744;50.938;7.286;2023-08-17T14:00:57;7.32;;;4.40;;
34497;SDS011;20744;50.938;7.286;2023-08-17T14:03:27;6.88;;;4.03;;
34497;SDS011;20744;50.938;7.286;2023-08-17T14:05:55;4.07;;;3.67;;
34497;SDS011;20744;50.938;7.286;2023-08-17T14:08:23;7.20;;;3.80;;
34497;SDS011;20744;50.938;7.286;2023-08-17T14:10:51;4.88;;;3.65;;
34497;SDS011;20744;50.938;7.286;2023-08-17T14:13:18;5.95;;;4.00;;
34497;SDS011;20744;50.938;7.286;2023-08-17T14:15:46;5.60;;;4.00;;
34497;SDS011;20744;50.938;7.286;2023-08-17T14:18:13;8.20;;;4.25;;
34497;SDS011;20744;50.938;7.286;2023-08-17T14:20:40;5.55;;;4.15;;
34497;SDS011;20744;50.938;7.286;2023-08-17T14:23:07;5.57;;;3.97;;
34497;SDS011;20744;50.938;7.286;2023-08-17T14:25:35;6.70;;;4.07;;
34497;SDS011;20744;50.938;7.286;2023-08-17T14:28:05;5.22;;;3.85;;
34497;SDS011;20744;50.938;7.286;2023-08-17T14:30:32;6.47;;;4.00;;
34497;SDS011;20744;50.938;7.286;2023-08-17T14:33:00;5.85;;;4.00;;
34497;SDS011;20744;50.938;7.286;2023-08-17T14:35:27;5.72;;;4.05;;
34497;SDS011;20744;50.938;7.286;2023-08-17T14:37:54;4.07;;;3.17;;
34497;SDS011;20744;50.938;7.286;2023-08-17T14:40:23;9.80;;;3.58;;
34497;SDS011;20744;50.938;7.286;2023-08-17T14:42:53;9.50;;;3.28;;
34497;SDS011;20744;50.938;7.286;2023-08-17T14:45:21;5.13;;;3.63;;
34497;SDS011;20744;50.938;7.286;2023-08-17T14:47:52;6.13;;;3.72;;